Time;durP1;ratioP1;P1;durP2;ratioP2;P2;SDS_P1;SDS_P2;PMS_P1;PMS_P2;Temp;Humidity;BMP_temperature;BMP_pressure;BME280_temperature;BME280_humidity;BME280_pressure;Samples;Min_cycle;Max_cycle;Signal;HPM_P1;HPM_P2
2021/01/02 00:00:20;;;;;;;25.87;23.37;;;1.80;99.90;;;;;;6067177;23;20414;-75
2021/01/02 00:03:07;;;;;;;27.07;23.03;;;1.80;99.90;;;;;;6065845;23;20422;-76
2021/01/02 00:05:44;;;;;;;26.27;23.50;;;1.80;99.90;;;;;;6093405;23;20939;-79
2021/01/02 00:08:17;;;;;;;26.97;24.13;;;1.80;99.90;;;;;;6092352;23;20909;-78
2021/01/02 00:10:51;;;;;;;25.33;22.70;;;1.80;99.90;;;;;;6070482;23;20415;-77
2021/01/02 00:13:40;;;;;;;26.37;23.57;;;1.70;99.90;;;;;;6092703;23;20463;-78
2021/01/02 00:16:28;;;;;;;26.30;23.60;;;1.80;99.90;;;;;;6092662;23;20440;-78
2021/01/02 00:19:03;;;;;;;27.40;22.83;;;1.70;99.90;;;;;;6066405;23;20452;-76
2021/01/02 00:21:39;;;;;;;23.73;21.43;;;1.60;99.90;;;;;;6070011;23;20694;-79
2021/01/02 00:24:46;;;;;;;24.97;22.57;;;1.70;99.90;;;;;;6068398;23;20475;-76
2021/01/02 00:27:21;;;;;;;27.50;23.00;;;1.70;99.90;;;;;;6060880;23;20415;-79
2021/01/02 00:30:09;;;;;;;23.97;21.53;;;1.60;99.90;;;;;;6068571;23;20430;-78
2021/01/02 00:32:55;;;;;;;25.60;22.87;;;1.60;99.90;;;;;;6070380;23;20909;-78
2021/01/02 00:35:22;;;;;;;28.03;23.67;;;1.60;99.90;;;;;;6064506;23;20427;-78
2021/01/02 00:37:59;;;;;;;25.20;22.60;;;1.60;99.90;;;;;;6069815;23;20388;-78
2021/01/02 00:40:26;;;;;;;25.13;21.93;;;1.60;99.90;;;;;;6067967;23;20441;-77
2021/01/02 00:42:52;;;;;;;23.93;21.43;;;1.60;99.90;;;;;;6070005;23;20402;-78
2021/01/02 00:45:21;;;;;;;23.57;21.27;;;1.60;99.90;;;;;;6068602;23;20423;-78
2021/01/02 00:47:49;;;;;;;26.70;22.23;;;1.50;99.90;;;;;;6068685;23;20514;-79
2021/01/02 00:50:16;;;;;;;24.77;22.23;;;1.60;99.90;;;;;;6069792;23;20418;-78
2021/01/02 00:53:04;;;;;;;25.23;22.63;;;1.50;99.90;;;;;;6092229;23;20423;-78
2021/01/02 00:55:50;;;;;;;24.00;21.60;;;1.60;99.90;;;;;;6068987;23;20420;-77
2021/01/02 00:58:42;;;;;;;24.70;22.23;;;1.50;99.90;;;;;;6068091;23;20442;-79
2021/01/02 01:01:19;;;;;;;24.07;21.67;;;1.50;99.90;;;;;;6074271;23;20417;-79
2021/01/02 01:04:11;;;;;;;22.83;20.57;;;1.50;99.90;;;;;;6092588;23;20407;-78
2021/01/02 01:06:38;;;;;;;23.87;21.27;;;1.60;99.90;;;;;;6069374;23;20407;-78
2021/01/02 01:09:06;;;;;;;24.47;21.87;;;1.60;99.90;;;;;;6067977;23;20462;-78
2021/01/02 01:11:35;;;;;;;23.13;20.67;;;1.60;99.90;;;;;;6092852;23;20419;-78
2021/01/02 01:14:04;;;;;;;23.27;20.87;;;1.60;99.90;;;;;;6069538;23;20502;-79
2021/01/02 01:16:38;;;;;;;24.00;21.53;;;1.60;99.90;;;;;;6072304;23;20783;-78
2021/01/02 01:19:05;;;;;;;23.57;21.07;;;1.60;99.90;;;;;;6094234;23;20450;-79
2021/01/02 01:21:36;;;;;;;23.17;20.77;;;1.50;99.90;;;;;;6072235;23;20446;-79
2021/01/02 01:24:13;;;;;;;22.20;20.03;;;1.50;99.90;;;;;;6072370;23;20382;-78
2021/01/02 01:27:04;;;;;;;23.53;21.23;;;1.50;99.90;;;;;;6072066;23;20396;-78
2021/01/02 01:29:49;;;;;;;22.10;20.03;;;1.50;99.90;;;;;;6071684;23;20410;-78
2021/01/02 01:32:19;;;;;;;23.23;20.93;;;1.50;99.90;;;;;;6070727;23;20420;-79
2021/01/02 01:34:47;;;;;;;22.63;20.30;;;1.50;99.90;;;;;;6070326;23;20413;-78
2021/01/02 01:37:16;;;;;;;23.93;21.67;;;1.50;99.90;;;;;;6072648;23;20419;-78
2021/01/02 01:39:50;;;;;;;22.83;20.33;;;1.50;99.90;;;;;;6071608;23;20450;-78
2021/01/02 01:42:17;;;;;;;22.73;20.40;;;1.50;99.90;;;;;;6071352;23;20387;-79
2021/01/02 01:44:55;;;;;;;23.43;21.03;;;1.50;99.90;;;;;;6072106;23;20401;-78
2021/01/02 01:47:23;;;;;;;22.90;20.77;;;1.50;99.90;;;;;;6070271;23;20765;-79
2021/01/02 01:50:25;;;;;;;22.53;20.13;;;1.50;99.90;;;;;;6071305;23;20411;-78
2021/01/02 01:53:16;;;;;;;22.77;20.60;;;1.50;99.90;;;;;;6070183;23;20808;-79
2021/01/02 01:55:59;;;;;;;23.63;21.17;;;1.30;99.90;;;;;;6070345;23;20466;-77
2021/01/02 01:58:38;;;;;;;23.60;21.30;;;1.30;99.90;;;;;;6070103;23;20489;-78
2021/01/02 02:01:05;;;;;;;23.03;20.73;;;1.30;99.90;;;;;;6070326;23;20431;-78
2021/01/02 02:03:45;;;;;;;22.67;20.33;;;1.40;99.90;;;;;;6072116;23;20401;-78
2021/01/02 02:06:23;;;;;;;21.70;19.70;;;1.50;99.90;;;;;;6072796;23;20380;-79
2021/01/02 02:08:58;;;;;;;22.63;20.23;;;1.50;99.90;;;;;;6070111;23;20467;-79
2021/01/02 02:11:44;;;;;;;23.63;21.17;;;1.50;99.90;;;;;;6071224;23;20458;-77
2021/01/02 02:14:13;;;;;;;26.83;21.63;;;1.60;99.90;;;;;;6071880;23;20501;-79
2021/01/02 02:16:52;;;;;;;22.90;20.57;;;1.60;99.90;;;;;;6094415;23;20423;-78
2021/01/02 02:19:54;;;;;;;25.30;22.57;;;1.60;99.90;;;;;;6071444;23;20438;-79
2021/01/02 02:22:24;;;;;;;24.30;21.80;;;1.60;99.90;;;;;;6052391;23;20886;-79
2021/01/02 02:24:52;;;;;;;25.10;22.03;;;1.50;99.90;;;;;;6070180;23;20894;-78
2021/01/02 02:27:25;;;;;;;24.83;22.33;;;1.60;99.90;;;;;;6071316;23;20420;-78
2021/01/02 02:30:04;;;;;;;23.77;21.27;;;1.60;99.90;;;;;;6071452;23;20407;-78
2021/01/02 02:32:35;;;;;;;25.03;22.57;;;1.60;99.90;;;;;;6072038;23;20914;-78
2021/01/02 02:35:04;;;;;;;24.43;21.93;;;1.60;99.90;;;;;;6071798;23;20835;-79
2021/01/02 02:37:30;;;;;;;24.57;22.00;;;1.60;99.90;;;;;;6093617;23;20423;-79
2021/01/02 02:39:57;;;;;;;23.07;20.63;;;1.60;99.90;;;;;;6069588;23;20482;-78
2021/01/02 02:42:27;;;;;;;23.23;20.83;;;1.60;99.90;;;;;;6069620;23;20423;-78
2021/01/02 02:44:57;;;;;;;23.00;20.67;;;1.70;99.90;;;;;;6069930;23;20414;-78
2021/01/02 02:47:25;;;;;;;24.50;22.00;;;1.70;99.90;;;;;;6069325;23;20430;-78
2021/01/02 02:49:55;;;;;;;24.93;21.50;;;1.70;99.90;;;;;;6071066;23;20415;-78
2021/01/02 02:52:27;;;;;;;23.87;21.40;;;1.70;99.90;;;;;;6071244;23;20393;-79
2021/01/02 02:54:53;;;;;;;22.90;20.47;;;1.70;99.90;;;;;;6071733;23;20383;-79
2021/01/02 02:57:21;;;;;;;22.33;20.10;;;1.60;99.90;;;;;;6093497;23;20916;-79
2021/01/02 02:59:48;;;;;;;23.93;20.80;;;1.50;99.90;;;;;;6070260;23;20445;-78
2021/01/02 03:02:15;;;;;;;24.67;21.93;;;1.50;99.90;;;;;;6093979;23;20418;-78
2021/01/02 03:04:41;;;;;;;25.07;22.50;;;1.60;99.90;;;;;;6070106;23;20755;-78
2021/01/02 03:07:08;;;;;;;25.17;22.63;;;1.60;99.90;;;;;;6093552;23;20422;-78
2021/01/02 03:09:35;;;;;;;24.27;21.77;;;1.60;99.90;;;;;;6070736;23;20412;-78
2021/01/02 03:12:01;;;;;;;23.43;21.13;;;1.60;99.90;;;;;;6070950;23;20462;-79
2021/01/02 03:14:28;;;;;;;22.53;20.30;;;1.60;99.90;;;;;;6070894;23;20402;-78
2021/01/02 03:16:59;;;;;;;24.37;21.87;;;1.60;99.90;;;;;;6070588;23;20411;-78
2021/01/02 03:19:26;;;;;;;25.57;22.73;;;1.60;99.90;;;;;;6069155;23;20942;-78
2021/01/02 03:21:53;;;;;;;24.13;21.63;;;1.60;99.90;;;;;;6069644;23;20419;-78
2021/01/02 03:24:19;;;;;;;24.37;21.80;;;1.60;99.90;;;;;;6069537;23;20425;-77
2021/01/02 03:26:45;;;;;;;23.03;20.73;;;1.70;99.90;;;;;;6069378;23;20415;-78
2021/01/02 03:29:12;;;;;;;23.23;21.07;;;1.60;99.90;;;;;;6070650;23;20413;-79
2021/01/02 03:31:38;;;;;;;24.73;22.23;;;1.60;99.90;;;;;;6071022;23;20398;-78
2021/01/02 03:34:06;;;;;;;24.90;22.27;;;1.60;99.90;;;;;;6071352;23;20393;-79
2021/01/02 03:36:33;;;;;;;24.17;21.87;;;1.60;99.90;;;;;;6070186;23;20440;-78
2021/01/02 03:39:00;;;;;;;24.10;21.67;;;1.60;99.90;;;;;;6094084;23;20452;-78
2021/01/02 03:41:28;;;;;;;24.53;22.07;;;1.50;99.90;;;;;;6071445;23;20391;-80
2021/01/02 03:43:55;;;;;;;25.40;22.30;;;1.40;99.90;;;;;;6069396;23;20430;-78
2021/01/02 03:46:27;;;;;;;23.13;20.73;;;1.40;99.90;;;;;;6068794;23;20908;-78
2021/01/02 03:48:54;;;;;;;24.50;22.00;;;1.50;99.90;;;;;;6071282;23;20380;-79
2021/01/02 03:51:25;;;;;;;24.23;21.87;;;1.50;99.90;;;;;;6068691;23;20455;-79
2021/01/02 03:53:51;;;;;;;23.37;20.87;;;1.50;99.90;;;;;;6091163;23;20475;-77
2021/01/02 03:56:18;;;;;;;23.53;21.27;;;1.50;99.90;;;;;;6065598;23;20422;-77
2021/01/02 03:58:44;;;;;;;24.97;22.00;;;1.60;99.90;;;;;;6058794;23;20438;-76
2021/01/02 04:01:12;;;;;;;25.33;22.57;;;1.60;99.90;;;;;;6067670;23;20426;-76
2021/01/02 04:03:39;;;;;;;25.53;22.83;;;1.60;99.90;;;;;;6065501;23;20397;-75
2021/01/02 04:06:05;;;;;;;23.00;20.70;;;1.60;99.90;;;;;;6061618;23;20392;-76
2021/01/02 04:08:33;;;;;;;24.70;22.07;;;1.60;99.90;;;;;;6062546;23;20384;-76
2021/01/02 04:10:59;;;;;;;24.83;22.40;;;1.60;99.90;;;;;;6064869;23;20782;-76
2021/01/02 04:13:25;;;;;;;25.27;22.77;;;1.60;99.90;;;;;;6066493;23;20391;-77
2021/01/02 04:15:52;;;;;;;26.23;23.40;;;1.60;99.90;;;;;;6064992;23;20428;-76
2021/01/02 04:18:18;;;;;;;26.60;22.93;;;1.60;99.90;;;;;;6066222;23;20469;-76
2021/01/02 04:20:46;;;;;;;26.27;23.43;;;1.60;99.90;;;;;;6066442;23;20415;-76
2021/01/02 04:23:13;;;;;;;26.47;23.63;;;1.60;99.90;;;;;;6066072;23;20429;-76
2021/01/02 04:25:40;;;;;;;25.10;22.50;;;1.60;99.90;;;;;;6066322;23;20451;-77
2021/01/02 04:28:08;;;;;;;26.67;23.93;;;1.60;99.90;;;;;;6065045;23;20470;-76
2021/01/02 04:30:34;;;;;;;26.00;23.13;;;1.60;99.90;;;;;;6066084;23;20757;-76
2021/01/02 04:33:01;;;;;;;25.93;23.17;;;1.60;99.90;;;;;;6066158;23;20393;-76
2021/01/02 04:35:27;;;;;;;25.30;22.60;;;1.60;99.90;;;;;;6066252;23;20395;-77
2021/01/02 04:37:53;;;;;;;25.90;23.27;;;1.70;99.90;;;;;;6065928;23;20387;-76
2021/01/02 04:40:20;;;;;;;24.80;22.23;;;1.70;99.90;;;;;;6064351;23;20475;-76
2021/01/02 04:42:48;;;;;;;28.03;24.20;;;1.70;99.90;;;;;;6064706;23;20900;-76
2021/01/02 04:45:15;;;;;;;26.00;23.47;;;1.80;99.90;;;;;;6066210;23;20439;-77
2021/01/02 04:47:45;;;;;;;25.10;22.50;;;1.80;99.90;;;;;;6088741;23;20454;-77
2021/01/02 04:50:11;;;;;;;26.10;23.30;;;1.70;99.90;;;;;;6089822;23;20427;-76
2021/01/02 04:52:39;;;;;;;26.93;22.93;;;1.70;99.90;;;;;;6065670;23;20474;-77
2021/01/02 04:55:07;;;;;;;26.00;23.30;;;1.70;99.90;;;;;;6090581;23;20767;-77
2021/01/02 04:57:35;;;;;;;25.13;22.43;;;1.70;99.90;;;;;;6067587;23;20445;-76
2021/01/02 05:00:06;;;;;;;27.23;22.97;;;1.70;99.90;;;;;;6067636;23;20442;-76
2021/01/02 05:02:33;;;;;;;29.20;24.23;;;1.70;99.90;;;;;;6067948;23;20430;-77
2021/01/02 05:04:59;;;;;;;25.40;22.70;;;1.70;99.90;;;;;;6066297;23;20416;-77
2021/01/02 05:07:27;;;;;;;26.83;23.93;;;1.70;99.90;;;;;;6066512;23;20410;-77
2021/01/02 05:09:54;;;;;;;24.67;22.07;;;1.60;99.90;;;;;;6067696;23;20411;-76
2021/01/02 05:12:25;;;;;;;27.30;24.40;;;1.60;99.90;;;;;;6066563;23;20419;-77
2021/01/02 05:14:59;;;;;;;27.07;24.00;;;1.60;99.90;;;;;;6068092;23;20395;-77
2021/01/02 05:17:30;;;;;;;29.67;25.00;;;1.60;99.90;;;;;;6068493;23;20432;-76
2021/01/02 05:20:02;;;;;;;25.40;22.70;;;1.50;99.90;;;;;;6067079;23;21213;-76
2021/01/02 05:22:28;;;;;;;26.40;23.53;;;1.40;99.90;;;;;;6069096;23;20873;-77
2021/01/02 05:25:09;;;;;;;26.83;24.03;;;1.40;99.90;;;;;;6067572;23;20469;-77
2021/01/02 05:27:37;;;;;;;26.27;23.43;;;1.40;99.90;;;;;;6069416;23;20718;-77
2021/01/02 05:30:22;;;;;;;31.57;25.77;;;1.40;99.90;;;;;;6091258;23;20435;-78
2021/01/02 05:33:05;;;;;;;27.40;23.00;;;1.40;99.90;;;;;;6067408;23;20415;-77
2021/01/02 05:35:39;;;;;;;27.40;24.07;;;1.40;99.90;;;;;;6071089;23;20391;-79
2021/01/02 05:38:14;;;;;;;27.90;24.47;;;1.50;99.90;;;;;;6069463;23;20407;-79
2021/01/02 05:40:42;;;;;;;26.40;23.63;;;1.50;99.90;;;;;;6068794;23;20429;-77
2021/01/02 05:43:08;;;;;;;27.67;24.30;;;1.50;99.90;;;;;;6069094;23;20406;-77
2021/01/02 05:45:35;;;;;;;27.03;24.17;;;1.40;99.90;;;;;;6067570;23;20902;-77
2021/01/02 05:48:15;;;;;;;31.10;25.50;;;1.50;99.90;;;;;;6067453;23;20489;-77
2021/01/02 05:50:43;;;;;;;28.87;24.60;;;1.40;99.90;;;;;;6093720;23;20497;-79
2021/01/02 05:53:27;;;;;;;31.60;24.87;;;1.40;99.90;;;;;;6068910;23;20474;-77
2021/01/02 05:56:01;;;;;;;29.63;24.77;;;1.40;99.90;;;;;;6096074;23;20403;-79
2021/01/02 05:58:29;;;;;;;27.00;24.10;;;1.40;99.90;;;;;;6071473;23;20869;-76
2021/01/02 06:01:07;;;;;;;29.77;24.30;;;1.40;99.90;;;;;;6067777;23;20412;-76
2021/01/02 06:03:36;;;;;;;30.37;26.47;;;1.50;99.90;;;;;;6068248;23;20406;-75
2021/01/02 06:06:05;;;;;;;30.33;25.37;;;1.40;99.90;;;;;;6068868;23;20392;-77
2021/01/02 06:08:33;;;;;;;28.83;25.70;;;1.50;99.90;;;;;;6068942;23;20863;-76
2021/01/02 06:11:01;;;;;;;28.47;25.47;;;1.50;99.90;;;;;;6068492;23;20443;-76
2021/01/02 06:13:29;;;;;;;30.33;25.20;;;1.40;99.90;;;;;;6067946;23;20446;-79
2021/01/02 06:15:58;;;;;;;29.33;26.13;;;1.40;99.90;;;;;;6067530;23;20412;-78
2021/01/02 06:18:25;;;;;;;28.83;25.73;;;1.30;99.90;;;;;;6089691;23;20941;-75
2021/01/02 06:20:56;;;;;;;33.93;27.17;;;1.30;99.90;;;;;;6067537;23;20416;-75
2021/01/02 06:23:23;;;;;;;28.80;25.70;;;1.20;99.90;;;;;;6067193;23;20439;-74
2021/01/02 06:25:52;;;;;;;28.10;24.63;;;1.20;99.90;;;;;;6065443;23;20423;-76
2021/01/02 06:28:19;;;;;;;27.20;23.63;;;1.20;99.90;;;;;;6067468;23;20407;-76
2021/01/02 06:30:45;;;;;;;28.63;25.40;;;1.20;99.90;;;;;;6068783;23;20411;-77
2021/01/02 06:33:15;;;;;;;30.40;26.07;;;1.30;99.90;;;;;;6067417;23;20419;-77
2021/01/02 06:35:42;;;;;;;29.20;25.53;;;1.30;99.90;;;;;;6070671;23;20697;-77
2021/01/02 06:38:13;;;;;;;30.37;25.23;;;1.30;99.90;;;;;;6068770;23;20749;-77
2021/01/02 06:40:46;;;;;;;28.53;25.53;;;1.20;99.90;;;;;;6070424;23;20448;-77
2021/01/02 06:43:14;;;;;;;27.03;24.13;;;1.20;99.90;;;;;;6070012;23;20407;-77
2021/01/02 06:45:48;;;;;;;30.33;26.27;;;1.30;99.90;;;;;;6070822;23;20790;-76
2021/01/02 06:48:30;;;;;;;26.20;23.40;;;1.30;99.90;;;;;;6070051;23;20383;-77
2021/01/02 06:50:58;;;;;;;25.57;22.83;;;1.30;99.90;;;;;;6070185;23;20414;-77
2021/01/02 06:53:27;;;;;;;28.87;24.93;;;1.30;99.90;;;;;;6068959;23;20421;-77
2021/01/02 06:56:00;;;;;;;28.90;25.07;;;1.40;99.90;;;;;;6071613;23;20395;-77
2021/01/02 06:58:35;;;;;;;27.70;23.80;;;1.40;99.90;;;;;;6093799;23;20426;-77
2021/01/02 07:01:01;;;;;;;26.73;23.73;;;1.40;99.90;;;;;;6070265;23;20411;-78
2021/01/02 07:03:45;;;;;;;27.00;24.10;;;1.30;99.90;;;;;;6070937;23;20395;-77
2021/01/02 07:06:21;;;;;;;27.17;24.07;;;1.30;99.90;;;;;;6069152;23;20423;-79
2021/01/02 07:08:49;;;;;;;29.33;24.60;;;1.40;99.90;;;;;;6067159;23;20743;-75
2021/01/02 07:11:30;;;;;;;27.37;24.23;;;1.40;99.90;;;;;;6067630;23;20419;-76
2021/01/02 07:14:21;;;;;;;26.07;23.30;;;1.40;99.90;;;;;;6066363;23;20425;-77
2021/01/02 07:16:50;;;;;;;27.97;24.33;;;1.40;99.90;;;;;;6067688;23;20458;-76
2021/01/02 07:19:42;;;;;;;27.73;24.83;;;1.40;99.90;;;;;;6091061;23;20448;-76
2021/01/02 07:22:11;;;;;;;30.63;25.70;;;1.50;99.90;;;;;;6069116;23;20394;-77
2021/01/02 07:24:47;;;;;;;30.30;25.97;;;1.30;99.90;;;;;;6066101;23;20456;-78
2021/01/02 07:27:15;;;;;;;29.10;25.47;;;1.40;99.90;;;;;;6068172;23;20391;-76
2021/01/02 07:29:43;;;;;;;30.47;26.20;;;1.30;99.90;;;;;;6067169;23;20439;-77
2021/01/02 07:32:12;;;;;;;30.97;25.87;;;1.30;99.90;;;;;;6068833;23;20878;-77
2021/01/02 07:34:40;;;;;;;32.67;26.13;;;1.20;99.90;;;;;;6068371;23;20871;-77
2021/01/02 07:37:08;;;;;;;29.63;25.70;;;1.20;99.90;;;;;;6068909;23;20443;-77
2021/01/02 07:39:35;;;;;;;30.23;26.93;;;1.30;99.90;;;;;;6066358;23;20451;-77
2021/01/02 07:42:08;;;;;;;30.57;27.47;;;1.20;99.90;;;;;;6067487;23;20427;-77
2021/01/02 07:44:35;;;;;;;30.00;26.87;;;1.30;99.90;;;;;;6091488;23;20989;-77
2021/01/02 07:47:02;;;;;;;28.53;25.73;;;1.30;99.90;;;;;;6069330;23;20403;-76
2021/01/02 07:49:29;;;;;;;31.97;26.20;;;1.30;99.90;;;;;;6090928;23;20435;-76
2021/01/02 07:51:55;;;;;;;29.43;26.23;;;1.30;99.90;;;;;;6068421;23;20393;-76
2021/01/02 07:54:35;;;;;;;28.33;25.20;;;1.30;99.90;;;;;;6067920;23;20407;-76
2021/01/02 07:57:04;;;;;;;29.37;26.10;;;1.40;99.90;;;;;;6067351;23;20438;-77
2021/01/02 07:59:33;;;;;;;30.20;26.67;;;1.40;99.90;;;;;;6090169;23;20451;-77
2021/01/02 08:02:01;;;;;;;32.20;27.73;;;1.40;99.90;;;;;;6067295;23;20391;-76
2021/01/02 08:04:29;;;;;;;30.27;27.03;;;1.40;99.90;;;;;;6068889;23;20406;-78
2021/01/02 08:06:58;;;;;;;29.80;26.60;;;1.30;99.90;;;;;;6069014;23;20411;-78
2021/01/02 08:09:25;;;;;;;27.77;24.83;;;1.30;99.90;;;;;;6070342;23;20413;-78
2021/01/02 08:11:56;;;;;;;34.00;26.13;;;1.40;99.90;;;;;;6071109;23;20390;-78
2021/01/02 08:14:23;;;;;;;28.20;24.93;;;1.30;99.90;;;;;;6092545;23;20455;-80
2021/01/02 08:17:00;;;;;;;27.07;24.33;;;1.40;99.90;;;;;;6069923;23;20746;-77
2021/01/02 08:19:27;;;;;;;29.57;25.43;;;1.50;99.90;;;;;;6067881;23;20454;-78
2021/01/02 08:21:53;;;;;;;29.50;26.30;;;1.50;99.90;;;;;;6068128;23;20415;-81
2021/01/02 08:24:19;;;;;;;26.90;24.07;;;1.50;99.90;;;;;;6066770;23;20442;-76
2021/01/02 08:26:47;;;;;;;28.07;24.60;;;1.50;99.90;;;;;;6068505;23;20397;-78
2021/01/02 08:29:13;;;;;;;27.17;24.27;;;1.60;99.90;;;;;;6065513;23;20431;-77
2021/01/02 08:31:48;;;;;;;27.47;24.60;;;1.60;99.90;;;;;;6066405;23;20929;-77
2021/01/02 08:34:24;;;;;;;28.37;24.70;;;1.60;99.90;;;;;;6067708;23;20469;-77
2021/01/02 08:36:51;;;;;;;26.53;23.73;;;1.60;99.90;;;;;;6069384;23;20379;-77
2021/01/02 08:39:20;;;;;;;26.63;23.87;;;1.60;99.90;;;;;;6068420;23;20450;-77
2021/01/02 08:41:53;;;;;;;26.30;23.33;;;1.60;99.90;;;;;;6068771;23;21076;-77
2021/01/02 08:44:27;;;;;;;29.10;24.63;;;1.60;99.90;;;;;;6067429;23;20921;-77
2021/01/02 08:46:53;;;;;;;31.30;25.27;;;1.60;99.90;;;;;;6067577;23;20400;-77
2021/01/02 08:49:35;;;;;;;26.77;23.97;;;1.60;99.90;;;;;;6067612;23;20434;-77
2021/01/02 08:52:24;;;;;;;26.00;23.23;;;1.50;99.90;;;;;;6067083;23;20878;-77
2021/01/02 08:54:53;;;;;;;27.27;24.37;;;1.60;99.90;;;;;;6066358;23;20410;-77
2021/01/02 08:57:30;;;;;;;27.47;24.27;;;1.60;99.90;;;;;;6068703;23;20423;-77
2021/01/02 09:00:18;;;;;;;27.73;24.73;;;1.50;99.90;;;;;;6067630;23;20442;-76
2021/01/02 09:02:46;;;;;;;26.57;23.83;;;1.60;99.90;;;;;;6065970;23;20379;-76
2021/01/02 09:05:15;;;;;;;29.13;25.00;;;1.60;99.90;;;;;;6065831;23;20451;-76
2021/01/02 09:07:53;;;;;;;26.67;23.77;;;1.60;99.90;;;;;;6065993;23;20480;-76
2021/01/02 09:10:22;;;;;;;28.53;25.27;;;1.70;99.90;;;;;;6088217;23;20446;-75
2021/01/02 09:13:03;;;;;;;27.40;24.50;;;1.70;99.90;;;;;;6064009;23;20414;-76
2021/01/02 09:15:45;;;;;;;27.03;24.17;;;1.70;99.90;;;;;;6063781;23;20400;-76
2021/01/02 09:18:13;;;;;;;26.43;23.47;;;1.70;99.90;;;;;;6057743;23;20383;-76
2021/01/02 09:20:40;;;;;;;27.00;22.63;;;1.80;99.90;;;;;;6067005;23;20442;-76
2021/01/02 09:23:08;;;;;;;27.10;24.17;;;1.80;99.90;;;;;;6066152;23;21060;-78
2021/01/02 09:25:36;;;;;;;25.20;22.70;;;1.80;99.90;;;;;;6062723;23;20425;-76
2021/01/02 09:28:13;;;;;;;27.07;24.23;;;1.80;99.90;;;;;;6063080;23;20821;-76
2021/01/02 09:30:40;;;;;;;25.37;22.90;;;1.90;99.90;;;;;;6066612;23;20770;-76
2021/01/02 09:33:06;;;;;;;25.20;22.60;;;1.90;99.90;;;;;;6064964;23;20943;-76
2021/01/02 09:35:32;;;;;;;24.43;21.93;;;2.00;99.90;;;;;;6066181;23;20431;-76
2021/01/02 09:38:01;;;;;;;25.03;21.97;;;2.00;99.90;;;;;;6068094;23;20425;-76
2021/01/02 09:40:28;;;;;;;24.50;22.07;;;2.00;99.90;;;;;;6066220;23;20453;-76
2021/01/02 09:42:55;;;;;;;25.17;22.67;;;2.00;99.90;;;;;;6068066;23;20401;-75
2021/01/02 09:45:21;;;;;;;24.27;21.87;;;2.00;99.90;;;;;;6068369;23;20504;-75
2021/01/02 09:47:47;;;;;;;22.80;20.70;;;2.00;99.90;;;;;;6065882;23;20475;-76
2021/01/02 09:50:14;;;;;;;22.83;20.67;;;2.10;99.90;;;;;;6067700;23;20411;-76
2021/01/02 09:52:40;;;;;;;24.37;21.97;;;2.30;99.90;;;;;;6087198;23;20422;-76
2021/01/02 09:55:07;;;;;;;21.87;19.57;;;2.30;99.90;;;;;;6064394;23;20898;-76
2021/01/02 09:57:34;;;;;;;21.83;19.43;;;2.40;99.90;;;;;;6066469;23;20396;-75
2021/01/02 10:00:01;;;;;;;17.60;12.40;;;2.40;99.90;;;;;;6065454;23;20499;-75
2021/01/02 10:02:30;;;;;;;17.30;11.80;;;2.50;99.90;;;;;;6068199;23;20397;-76
2021/01/02 10:04:56;;;;;;;14.67;10.90;;;2.50;99.90;;;;;;6067664;23;20452;-76
2021/01/02 10:07:22;;;;;;;16.73;12.20;;;2.50;99.90;;;;;;6089796;23;20969;-76
2021/01/02 10:09:49;;;;;;;16.87;12.33;;;2.50;99.90;;;;;;6067049;23;20412;-76
2021/01/02 10:12:17;;;;;;;15.07;11.23;;;2.50;99.90;;;;;;6067063;23;20392;-76
2021/01/02 10:14:46;;;;;;;16.00;10.63;;;2.60;99.90;;;;;;6067337;23;20395;-76
2021/01/02 10:17:13;;;;;;;16.57;11.57;;;2.60;99.90;;;;;;6066426;23;20743;-76
2021/01/02 10:19:44;;;;;;;18.33;13.00;;;2.60;99.90;;;;;;6088542;23;20439;-76
2021/01/02 10:22:10;;;;;;;16.10;11.40;;;2.60;99.90;;;;;;6063454;23;20422;-76
2021/01/02 10:24:37;;;;;;;20.20;13.53;;;2.60;99.90;;;;;;6066430;23;20414;-76
2021/01/02 10:27:04;;;;;;;18.10;12.43;;;2.50;99.90;;;;;;6066489;23;20740;-75
2021/01/02 10:29:30;;;;;;;17.77;12.17;;;2.50;99.90;;;;;;6064640;23;20945;-75
2021/01/02 10:32:03;;;;;;;18.27;12.17;;;2.60;99.90;;;;;;6066736;23;20462;-76
2021/01/02 10:34:30;;;;;;;16.43;11.83;;;2.60;99.90;;;;;;6067101;23;20403;-75
2021/01/02 10:36:56;;;;;;;17.73;11.90;;;2.50;99.90;;;;;;6067214;23;20448;-76
2021/01/02 10:39:23;;;;;;;15.37;11.00;;;2.60;99.90;;;;;;6066752;23;20478;-75
2021/01/02 10:41:50;;;;;;;15.80;11.57;;;2.60;99.90;;;;;;6066693;23;20392;-76
2021/01/02 10:44:18;;;;;;;18.37;12.57;;;2.60;99.90;;;;;;6058204;23;20482;-76
2021/01/02 10:46:46;;;;;;;17.27;12.07;;;2.60;99.90;;;;;;6066414;23;20393;-76
2021/01/02 10:49:15;;;;;;;17.27;11.80;;;2.70;99.90;;;;;;6066225;23;20449;-75
2021/01/02 10:51:42;;;;;;;22.33;20.13;;;2.70;99.90;;;;;;6065980;23;20394;-75
2021/01/02 10:54:09;;;;;;;21.23;19.13;;;2.70;99.90;;;;;;6062379;23;20426;-75
2021/01/02 10:56:36;;;;;;;21.10;19.07;;;2.80;99.90;;;;;;6064034;23;20716;-75
2021/01/02 10:59:03;;;;;;;22.20;20.10;;;2.90;99.90;;;;;;6064475;23;20424;-76
2021/01/02 11:01:29;;;;;;;22.67;20.37;;;2.80;99.90;;;;;;6065447;23;20414;-76
2021/01/02 11:03:56;;;;;;;21.97;19.83;;;2.80;99.90;;;;;;6064268;23;20456;-77
2021/01/02 11:06:23;;;;;;;21.73;19.43;;;2.80;99.90;;;;;;6064444;23;20467;-76
2021/01/02 11:08:50;;;;;;;23.73;21.37;;;2.90;99.90;;;;;;6066787;23;20873;-76
2021/01/02 11:11:20;;;;;;;23.50;21.10;;;3.10;99.90;;;;;;6064514;23;20452;-77
2021/01/02 11:13:47;;;;;;;23.87;21.30;;;3.00;99.90;;;;;;6068567;23;20716;-77
2021/01/02 11:16:13;;;;;;;21.73;19.73;;;3.00;99.90;;;;;;6067494;23;20405;-76
2021/01/02 11:18:40;;;;;;;22.00;19.80;;;3.00;99.90;;;;;;6066564;23;20399;-76
2021/01/02 11:21:10;;;;;;;21.43;19.33;;;3.10;99.90;;;;;;6067370;23;20834;-77
2021/01/02 11:23:38;;;;;;;21.97;19.97;;;3.10;99.90;;;;;;6064518;23;20393;-76
2021/01/02 11:26:09;;;;;;;22.60;20.30;;;3.20;99.90;;;;;;6065759;23;20515;-78
2021/01/02 11:28:35;;;;;;;20.43;18.43;;;3.10;99.90;;;;;;6062989;23;20377;-79
2021/01/02 11:31:01;;;;;;;20.83;18.77;;;3.20;99.90;;;;;;6069393;23;20411;-77
2021/01/02 11:33:28;;;;;;;21.13;19.13;;;3.20;99.90;;;;;;6070068;23;20394;-77
2021/01/02 11:35:54;;;;;;;22.60;20.30;;;3.30;99.90;;;;;;6090584;23;20420;-77
2021/01/02 11:38:21;;;;;;;22.30;19.90;;;3.00;99.90;;;;;;6065695;23;20484;-77
2021/01/02 11:40:51;;;;;;;21.37;19.27;;;3.10;99.90;;;;;;6063948;23;20441;-76
2021/01/02 11:43:18;;;;;;;23.13;20.77;;;3.20;99.90;;;;;;6058652;23;20561;-77
2021/01/02 11:45:46;;;;;;;22.47;20.17;;;3.30;99.90;;;;;;6065568;23;20768;-77
2021/01/02 11:48:13;;;;;;;22.13;19.80;;;3.20;99.90;;;;;;6065052;23;20423;-77
2021/01/02 11:50:40;;;;;;;20.93;18.73;;;3.20;99.90;;;;;;6067237;23;20476;-78
2021/01/02 11:53:07;;;;;;;22.23;19.93;;;3.20;99.90;;;;;;6067749;23;20392;-78
2021/01/02 11:55:34;;;;;;;22.10;19.97;;;3.20;99.90;;;;;;6066786;23;20402;-77
2021/01/02 11:58:02;;;;;;;21.63;19.53;;;3.10;99.90;;;;;;6066414;23;20397;-77
2021/01/02 12:00:30;;;;;;;21.83;19.83;;;3.10;99.90;;;;;;6087641;23;20453;-77
2021/01/02 12:02:57;;;;;;;20.57;18.53;;;3.20;99.90;;;;;;6067845;23;20524;-78
2021/01/02 12:05:23;;;;;;;22.07;19.80;;;3.20;99.90;;;;;;6067573;23;20425;-77
2021/01/02 12:07:49;;;;;;;21.57;19.57;;;3.20;99.90;;;;;;6065974;23;20393;-77
2021/01/02 12:10:16;;;;;;;22.10;19.80;;;3.10;99.90;;;;;;6065315;23;20822;-77
2021/01/02 12:12:43;;;;;;;22.07;19.77;;;3.10;99.90;;;;;;6068321;23;20394;-78
2021/01/02 12:15:12;;;;;;;21.83;19.73;;;3.00;99.90;;;;;;6090411;23;20772;-78
2021/01/02 12:17:39;;;;;;;22.17;19.97;;;2.90;99.90;;;;;;6066880;23;20460;-79
2021/01/02 12:20:08;;;;;;;21.53;19.47;;;3.00;99.90;;;;;;6066917;23;20447;-78
2021/01/02 12:22:36;;;;;;;23.47;21.07;;;2.90;99.90;;;;;;6070088;23;20402;-78
2021/01/02 12:25:05;;;;;;;21.30;19.10;;;2.90;99.90;;;;;;6064592;23;20739;-78
2021/01/02 12:27:32;;;;;;;20.97;19.00;;;3.00;99.90;;;;;;6091205;23;20492;-79
2021/01/02 12:29:58;;;;;;;21.63;19.53;;;3.10;99.90;;;;;;6062906;23;20445;-77
2021/01/02 12:32:27;;;;;;;22.40;20.20;;;3.10;99.90;;;;;;6065407;23;20414;-78
2021/01/02 12:34:55;;;;;;;22.67;20.47;;;3.10;99.90;;;;;;6067525;23;20393;-77
2021/01/02 12:37:22;;;;;;;24.00;21.77;;;3.10;99.90;;;;;;6069612;23;20397;-78
2021/01/02 12:39:49;;;;;;;22.37;20.10;;;3.00;99.90;;;;;;6069131;23;20534;-79
2021/01/02 12:42:15;;;;;;;23.93;21.43;;;3.10;99.90;;;;;;6087476;23;20761;-79
2021/01/02 12:44:42;;;;;;;22.87;20.57;;;3.10;99.90;;;;;;6088095;23;20426;-76
2021/01/02 12:47:11;;;;;;;23.10;20.70;;;3.10;99.90;;;;;;6066145;23;20520;-79
2021/01/02 12:49:40;;;;;;;23.03;20.83;;;3.10;99.90;;;;;;6063829;23;20488;-77
2021/01/02 12:52:07;;;;;;;23.70;21.20;;;3.20;99.90;;;;;;6063676;23;20705;-77